createdAt,value
2023-12-09T00:03:34.647Z,6.07
2023-12-09T00:08:37.778Z,6.06
2023-12-09T00:13:39.761Z,6.07
2023-12-09T00:18:41.584Z,6.04
2023-12-09T00:23:47.753Z,6.09
2023-12-09T00:28:50.140Z,6.15
2023-12-09T00:33:51.889Z,6.18
2023-12-09T00:38:55.009Z,6.09
2023-12-09T00:43:56.690Z,6.08
2023-12-09T00:48:58.508Z,6.08
2023-12-09T00:54:03.371Z,6.09
2023-12-09T00:59:05.938Z,6.11
2023-12-09T01:04:07.713Z,6.10
2023-12-09T01:09:10.747Z,6.09
2023-12-09T01:14:12.948Z,5.95
2023-12-09T01:19:14.612Z,6.00
2023-12-09T01:24:17.713Z,5.99
2023-12-09T01:29:19.404Z,5.96
2023-12-09T01:34:21.203Z,6.05
2023-12-09T01:39:24.332Z,6.13
2023-12-09T01:44:26.009Z,6.07
2023-12-09T01:49:27.959Z,6.06
2023-12-09T01:54:31.186Z,6.06
2023-12-09T01:59:32.865Z,6.12
2023-12-09T02:04:34.631Z,6.18
2023-12-09T02:09:39.674Z,6.16
2023-12-09T02:14:50.119Z,6.28
2023-12-09T02:19:51.973Z,5.72
2023-12-09T02:24:55.043Z,6.31
2023-12-09T02:30:04.728Z,6.24
2023-12-09T02:35:09.370Z,6.25
2023-12-09T02:40:16.244Z,6.27
2023-12-09T02:45:19.244Z,5.99
2023-12-09T02:50:20.812Z,5.76
2023-12-09T02:55:23.910Z,5.38
2023-12-09T03:00:25.628Z,5.42
2023-12-09T03:05:28.274Z,5.22
2023-12-09T03:10:31.401Z,5.05
2023-12-09T03:15:33.326Z,4.93
2023-12-09T03:20:35.282Z,4.85
2023-12-09T03:25:38.352Z,4.74
2023-12-09T03:30:40.106Z,4.55
2023-12-09T03:35:42.687Z,4.43
2023-12-09T03:40:46.088Z,4.41
2023-12-09T03:45:47.770Z,4.34
2023-12-09T03:50:49.599Z,4.32
2023-12-09T03:55:52.620Z,4.33
2023-12-09T04:00:54.304Z,4.37
2023-12-09T04:05:56.185Z,4.47
2023-12-09T04:10:59.244Z,4.47
2023-12-09T04:16:01.352Z,4.38
2023-12-09T04:21:03.309Z,4.16
2023-12-09T04:26:06.512Z,4.01
2023-12-09T04:31:08.078Z,3.90
2023-12-09T04:36:10.138Z,3.74
2023-12-09T04:41:13.141Z,3.54
2023-12-09T04:46:15.194Z,2.51
2023-12-09T04:51:17.212Z,2.26
2023-12-09T04:56:20.345Z,3.16
2023-12-09T05:01:22.126Z,3.03
2023-12-09T05:06:23.907Z,2.95
2023-12-09T05:11:26.997Z,2.74
2023-12-09T05:16:28.808Z,2.83
2023-12-09T05:21:35.566Z,2.84
2023-12-09T05:26:39.703Z,2.82
2023-12-09T05:31:41.380Z,2.95
2023-12-09T05:36:43.011Z,2.99
2023-12-09T05:41:46.010Z,3.00
2023-12-09T05:46:47.662Z,3.11
2023-12-09T05:51:49.423Z,3.06
2023-12-09T05:56:52.539Z,2.85
2023-12-09T06:01:55.839Z,2.80
2023-12-09T06:06:57.594Z,2.73
2023-12-09T06:12:00.655Z,2.47
2023-12-09T06:17:02.723Z,2.53
2023-12-09T06:22:04.394Z,2.44
2023-12-09T06:27:07.440Z,2.37
2023-12-09T06:32:09.077Z,1.71
2023-12-09T06:37:10.871Z,2.30
2023-12-09T06:42:14.605Z,2.27
2023-12-09T06:47:16.273Z,2.22
2023-12-09T06:52:17.889Z,2.04
2023-12-09T06:57:21.232Z,2.11
2023-12-09T07:02:22.873Z,2.07
2023-12-09T07:07:24.563Z,2.06
2023-12-09T07:12:28.269Z,2.02
2023-12-09T07:17:30.145Z,1.99
2023-12-09T07:22:31.859Z,1.94
2023-12-09T07:27:34.997Z,1.88
2023-12-09T07:32:36.755Z,1.87
2023-12-09T07:37:38.553Z,1.91
2023-12-09T07:42:41.583Z,1.64
2023-12-09T07:47:43.291Z,2.00
2023-12-09T07:52:45.008Z,1.95
2023-12-09T07:57:47.938Z,1.99
2023-12-09T08:02:49.630Z,1.97
2023-12-09T08:07:51.661Z,2.06
2023-12-09T08:12:54.622Z,2.14
2023-12-09T08:17:56.629Z,2.26
2023-12-09T08:22:58.388Z,1.80
2023-12-09T08:28:01.392Z,2.54
2023-12-09T08:33:03.229Z,2.68
2023-12-09T08:38:05.201Z,2.32
2023-12-09T08:43:08.177Z,3.32
2023-12-09T08:48:10.048Z,3.49
2023-12-09T08:53:11.841Z,3.89
2023-12-09T08:58:14.855Z,4.18
2023-12-09T09:03:16.507Z,4.28
2023-12-09T09:08:18.175Z,4.58
2023-12-09T09:13:21.142Z,4.70
2023-12-09T09:18:23.162Z,4.80
2023-12-09T09:23:24.929Z,4.96
2023-12-09T09:28:27.948Z,5.05
2023-12-09T09:33:31.999Z,5.38
2023-12-09T09:38:33.831Z,5.41
2023-12-09T09:43:45.186Z,5.75
2023-12-09T09:48:51.659Z,6.11
2023-12-09T09:54:06.114Z,6.47
2023-12-09T09:59:09.289Z,6.74
2023-12-09T10:04:11.096Z,6.97
2023-12-09T10:09:13.384Z,7.09
2023-12-09T10:14:17.127Z,7.14
2023-12-09T10:19:18.994Z,7.41
2023-12-09T10:24:20.790Z,7.54
2023-12-09T10:29:25.576Z,7.83
2023-12-09T10:34:27.371Z,7.96
2023-12-09T10:39:29.390Z,8.30
2023-12-09T10:44:32.723Z,8.44
2023-12-09T10:49:35.093Z,8.76
2023-12-09T10:54:37.033Z,9.18
2023-12-09T10:59:41.660Z,9.24
2023-12-09T11:04:43.542Z,9.24
2023-12-09T11:09:46.733Z,9.36
2023-12-09T11:14:49.681Z,9.36
2023-12-09T11:19:53.277Z,9.17
2023-12-09T11:24:55.016Z,9.12
2023-12-09T11:30:00.145Z,9.09
2023-12-09T11:35:03.548Z,9.15
2023-12-09T11:40:06.636Z,9.04
2023-12-09T11:45:10.987Z,8.90
2023-12-09T11:50:15.466Z,8.95
2023-12-09T11:55:17.897Z,8.98
2023-12-09T12:00:21.198Z,9.03
2023-12-09T12:05:23.017Z,9.05
2023-12-09T12:10:25.188Z,9.09
2023-12-09T12:15:28.282Z,9.24
2023-12-09T12:20:30.062Z,9.11
2023-12-09T12:25:31.705Z,9.09
2023-12-09T12:30:35.890Z,9.09
2023-12-09T12:35:37.644Z,8.88
2023-12-09T12:40:39.722Z,8.84
2023-12-09T12:45:42.730Z,8.90
2023-12-09T12:50:44.449Z,8.86
2023-12-09T12:55:46.368Z,8.16
2023-12-09T13:00:51.031Z,8.63
2023-12-09T13:05:52.900Z,8.64
2023-12-09T13:10:54.898Z,8.45
2023-12-09T13:15:58.411Z,8.50
2023-12-09T13:21:00.475Z,8.49
2023-12-09T13:26:02.381Z,8.33
2023-12-09T13:31:05.735Z,8.27
2023-12-09T13:36:08.385Z,8.35
2023-12-09T13:41:10.608Z,8.34
2023-12-09T13:46:13.673Z,8.24
2023-12-09T13:51:15.405Z,8.15
2023-12-09T13:56:17.050Z,8.07
2023-12-09T14:01:20.229Z,7.93
2023-12-09T14:06:22.161Z,7.89
2023-12-09T14:11:24.105Z,7.88
2023-12-09T14:16:27.150Z,7.79
2023-12-09T14:21:30.110Z,7.60
2023-12-09T14:26:33.415Z,7.76
2023-12-09T14:31:37.130Z,7.57
2023-12-09T14:36:39.078Z,7.74
2023-12-09T14:41:40.805Z,7.69
2023-12-09T14:46:44.017Z,7.53
2023-12-09T14:51:45.746Z,7.54
2023-12-09T14:56:47.481Z,7.47
2023-12-09T15:01:50.441Z,7.51
2023-12-09T15:06:52.233Z,7.36
2023-12-09T15:11:53.949Z,7.32
2023-12-09T15:16:56.992Z,7.21
2023-12-09T15:21:58.912Z,7.36
2023-12-09T15:27:00.754Z,7.21
2023-12-09T15:32:04.390Z,7.11
2023-12-09T15:37:06.096Z,6.44
2023-12-09T15:42:07.897Z,7.09
2023-12-09T15:47:10.899Z,7.07
2023-12-09T15:52:12.420Z,7.07
2023-12-09T15:57:14.366Z,7.05
2023-12-09T16:02:17.416Z,7.07
2023-12-09T16:07:19.156Z,7.17
2023-12-09T16:12:20.786Z,7.09
2023-12-09T16:17:23.877Z,7.07
2023-12-09T16:22:26.002Z,7.17
2023-12-09T16:27:28.059Z,7.18
2023-12-09T16:32:31.233Z,7.14
2023-12-09T16:37:33.043Z,7.26
2023-12-09T16:42:34.718Z,7.24
2023-12-09T16:47:38.482Z,7.11
2023-12-09T16:52:40.603Z,7.21
2023-12-09T16:57:42.423Z,7.13
2023-12-09T17:02:45.435Z,7.12
2023-12-09T17:07:47.085Z,7.22
2023-12-09T17:12:48.738Z,7.32
2023-12-09T17:17:51.957Z,7.21
2023-12-09T17:22:54.014Z,7.04
2023-12-09T17:27:55.731Z,7.21
2023-12-09T17:32:58.752Z,7.15
2023-12-09T17:38:00.424Z,7.34
2023-12-09T17:43:02.098Z,7.11
2023-12-09T17:48:05.655Z,7.22
2023-12-09T17:53:07.376Z,7.25
2023-12-09T17:58:09.142Z,7.26
2023-12-09T18:03:12.521Z,7.30
2023-12-09T18:08:14.307Z,7.24
2023-12-09T18:13:16.089Z,7.32
2023-12-09T18:18:20.264Z,7.24
2023-12-09T18:23:22.058Z,7.26
2023-12-09T18:28:23.789Z,7.30
2023-12-09T18:33:28.482Z,7.30
2023-12-09T18:38:31.060Z,7.37
2023-12-09T18:43:32.671Z,7.38
2023-12-09T18:48:35.829Z,7.33
2023-12-09T18:53:37.622Z,7.36
2023-12-09T18:58:39.286Z,7.34
2023-12-09T19:03:42.387Z,7.36
2023-12-09T19:08:44.211Z,7.38
2023-12-09T19:13:46.219Z,7.29
2023-12-09T19:18:49.329Z,7.17
2023-12-09T19:23:51.138Z,7.44
2023-12-09T19:28:52.857Z,7.36
2023-12-09T19:33:55.988Z,7.37
2023-12-09T19:38:57.670Z,7.36
2023-12-09T19:43:59.383Z,7.39
2023-12-09T19:49:02.454Z,6.69
2023-12-09T19:54:04.350Z,7.41
2023-12-09T19:59:05.977Z,7.44
2023-12-09T20:04:09.094Z,7.51
2023-12-09T20:09:10.861Z,7.44
2023-12-09T20:14:12.681Z,7.40
2023-12-09T20:19:16.018Z,7.38
2023-12-09T20:24:17.868Z,7.46
2023-12-09T20:29:19.517Z,7.43
2023-12-09T20:34:22.765Z,7.45
2023-12-09T20:39:24.637Z,7.53
2023-12-09T20:44:26.298Z,7.10
2023-12-09T20:49:29.313Z,7.52
2023-12-09T20:54:31.035Z,7.57
2023-12-09T20:59:32.808Z,7.60
2023-12-09T21:04:36.050Z,7.57
2023-12-09T21:09:38.072Z,7.66
2023-12-09T21:14:39.779Z,7.72
2023-12-09T21:19:42.811Z,8.37
2023-12-09T21:24:44.641Z,8.74
2023-12-09T21:29:46.340Z,8.85
2023-12-09T21:34:49.455Z,9.09
2023-12-09T21:39:51.234Z,9.16
2023-12-09T21:44:52.931Z,9.16
2023-12-09T21:49:55.996Z,9.20
2023-12-09T21:54:57.661Z,9.19
2023-12-09T21:59:59.615Z,9.15
2023-12-09T22:05:02.662Z,9.19
2023-12-09T22:10:05.259Z,9.17
2023-12-09T22:15:07.665Z,9.17
2023-12-09T22:20:11.866Z,9.21
2023-12-09T22:25:13.882Z,9.18
2023-12-09T22:30:16.181Z,9.20
2023-12-09T22:35:19.270Z,9.14
2023-12-09T22:40:21.014Z,9.27
2023-12-09T22:45:22.746Z,9.24
2023-12-09T22:50:25.760Z,9.24
2023-12-09T22:55:27.416Z,9.34
2023-12-09T23:00:29.334Z,9.29
2023-12-09T23:05:32.370Z,9.37
2023-12-09T23:10:34.066Z,9.37
2023-12-09T23:15:35.782Z,9.40
2023-12-09T23:20:38.821Z,9.44
2023-12-09T23:25:40.876Z,9.42
2023-12-09T23:30:42.586Z,9.46
2023-12-09T23:35:45.633Z,9.39
2023-12-09T23:40:47.318Z,9.53
2023-12-09T23:45:49.474Z,9.51
2023-12-09T23:50:52.559Z,9.47
2023-12-09T23:55:54.178Z,9.34
